createdAt,value
2019-05-12T00:00:43.591Z,92.90
2019-05-12T00:03:14.346Z,92.90
2019-05-12T00:05:44.157Z,93.50
2019-05-12T00:08:13.858Z,93.00
2019-05-12T00:10:43.581Z,92.70
2019-05-12T00:13:13.212Z,93.30
2019-05-12T00:15:42.899Z,92.60
2019-05-12T00:18:12.592Z,93.10
2019-05-12T00:20:42.322Z,92.80
2019-05-12T00:23:24.077Z,93.10
2019-05-12T00:25:44.277Z,93.20
2019-05-12T00:28:13.905Z,93.10
2019-05-12T00:30:48.705Z,93.30
2019-05-12T00:33:18.757Z,93.40
2019-05-12T00:35:48.498Z,93.90
2019-05-12T00:38:18.085Z,93.80
2019-05-12T00:40:48.000Z,93.70
2019-05-12T00:43:18.986Z,94.10
2019-05-12T00:45:49.650Z,94.50
2019-05-12T00:48:19.215Z,93.90
2019-05-12T00:50:48.800Z,94.50
2019-05-12T00:53:18.997Z,95.10
2019-05-12T00:55:48.765Z,94.70
2019-05-12T00:58:19.838Z,95.00
2019-05-12T01:00:49.606Z,95.10
2019-05-12T01:03:19.218Z,95.10
2019-05-12T01:05:48.881Z,95.60
2019-05-12T01:08:18.858Z,95.50
2019-05-12T01:10:48.609Z,95.60
2019-05-12T01:13:18.620Z,95.90
2019-05-12T01:15:48.642Z,95.90
2019-05-12T01:18:18.384Z,95.70
2019-05-12T01:20:48.194Z,94.80
2019-05-12T01:23:21.328Z,95.70
2019-05-12T01:25:50.862Z,96.10
2019-05-12T01:28:20.529Z,96.20
2019-05-12T01:30:50.182Z,95.80
2019-05-12T01:33:19.815Z,95.90
2019-05-12T01:35:49.478Z,95.70
2019-05-12T01:38:19.032Z,96.10
2019-05-12T01:40:48.657Z,95.90
2019-05-12T01:43:20.854Z,96.00
2019-05-12T01:45:49.404Z,96.10
2019-05-12T01:48:19.108Z,96.00
2019-05-12T01:50:48.670Z,96.40
2019-05-12T01:53:18.333Z,96.90
2019-05-12T01:55:48.543Z,96.20
2019-05-12T01:58:19.408Z,96.40
2019-05-12T02:00:49.385Z,96.70
2019-05-12T02:03:18.962Z,96.60
2019-05-12T02:05:57.998Z,96.20
2019-05-12T02:08:29.977Z,96.20
2019-05-12T02:11:18.330Z,96.80
2019-05-12T02:13:48.584Z,96.70
2019-05-12T02:16:18.891Z,97.20
2019-05-12T02:18:49.137Z,96.70
2019-05-12T02:21:19.084Z,96.90
2019-05-12T02:23:48.743Z,97.10
2019-05-12T02:26:19.559Z,97.30
2019-05-12T02:28:49.077Z,97.10
2019-05-12T02:31:20.837Z,97.30
2019-05-12T02:33:50.932Z,97.50
2019-05-12T02:36:20.559Z,97.70
2019-05-12T02:38:50.283Z,98.20
2019-05-12T02:41:19.881Z,97.80
2019-05-12T02:43:49.444Z,97.90
2019-05-12T02:46:19.255Z,98.10
2019-05-12T02:48:48.778Z,98.30
2019-05-12T02:51:18.393Z,98.50
2019-05-12T02:53:48.890Z,98.80
2019-05-12T02:56:19.630Z,98.60
2019-05-12T02:58:49.824Z,98.10
2019-05-12T03:01:24.391Z,98.10
2019-05-12T03:03:55.786Z,98.10
2019-05-12T03:06:27.782Z,97.90
2019-05-12T03:09:00.391Z,98.40
2019-05-12T03:11:31.504Z,98.40
2019-05-12T03:14:03.819Z,98.20
2019-05-12T03:16:34.937Z,98.30
2019-05-12T03:19:05.024Z,98.80
2019-05-12T03:21:35.801Z,98.70
2019-05-12T03:24:06.906Z,98.70
2019-05-12T03:26:37.790Z,98.80
2019-05-12T03:29:07.481Z,98.80
2019-05-12T03:31:41.318Z,98.40
2019-05-12T03:34:10.911Z,98.60
2019-05-12T03:36:42.945Z,98.10
2019-05-12T03:39:10.949Z,97.80
2019-05-12T03:41:40.512Z,97.70
2019-05-12T03:44:10.060Z,98.10
2019-05-12T03:46:39.702Z,98.30
2019-05-12T03:49:09.532Z,98.40
2019-05-12T03:51:40.245Z,98.40
2019-05-12T03:54:09.862Z,98.50
2019-05-12T03:56:39.437Z,98.70
2019-05-12T03:59:09.237Z,98.80
2019-05-12T04:01:38.999Z,98.60
2019-05-12T04:04:08.558Z,98.50
2019-05-12T04:06:38.117Z,98.80
2019-05-12T04:09:09.318Z,99.20
2019-05-12T04:11:38.946Z,98.80
2019-05-12T04:14:08.576Z,98.80
2019-05-12T04:16:38.218Z,99.10
2019-05-12T04:19:07.774Z,98.80
2019-05-12T04:21:37.341Z,99.10
2019-05-12T04:24:06.961Z,99.10
2019-05-12T04:26:36.981Z,97.60
2019-05-12T04:29:06.827Z,97.50
2019-05-12T04:31:37.074Z,97.20
2019-05-12T04:34:06.644Z,96.70
2019-05-12T04:36:36.243Z,96.70
2019-05-12T04:39:07.181Z,97.40
2019-05-12T04:41:37.231Z,97.40
2019-05-12T04:44:06.833Z,97.20
2019-05-12T04:46:36.419Z,97.60
2019-05-12T04:49:06.006Z,97.60
2019-05-12T04:51:35.614Z,97.80
2019-05-12T04:54:06.011Z,98.00
2019-05-12T04:56:36.416Z,98.10
2019-05-12T04:59:06.100Z,98.30
2019-05-12T05:01:35.673Z,98.30
2019-05-12T05:04:06.243Z,98.60
2019-05-12T05:06:36.055Z,98.50
2019-05-12T05:09:07.948Z,98.50
2019-05-12T05:11:37.480Z,98.30
2019-05-12T05:14:07.119Z,98.10
2019-05-12T05:16:36.751Z,98.00
2019-05-12T05:19:06.297Z,97.90
2019-05-12T05:21:35.937Z,97.60
2019-05-12T05:24:05.500Z,97.70
2019-05-12T05:26:37.434Z,97.60
2019-05-12T05:29:06.422Z,97.50
2019-05-12T05:31:35.998Z,97.60
2019-05-12T05:34:05.560Z,97.50
2019-05-12T05:36:35.219Z,97.70
2019-05-12T05:39:07.003Z,97.40
2019-05-12T05:41:40.249Z,97.40
2019-05-12T05:44:07.813Z,97.20
2019-05-12T05:46:39.042Z,96.70
2019-05-12T05:49:08.688Z,96.80
2019-05-12T05:51:39.443Z,96.60
2019-05-12T05:54:09.642Z,97.00
2019-05-12T05:56:43.026Z,97.00
2019-05-12T05:59:10.313Z,97.30
2019-05-12T06:01:45.183Z,97.20
2019-05-12T06:04:11.325Z,97.00
2019-05-12T06:06:42.504Z,97.10
2019-05-12T06:09:14.025Z,96.90
2019-05-12T06:11:43.821Z,96.60
2019-05-12T06:14:16.150Z,96.80
2019-05-12T06:16:45.629Z,96.50
2019-05-12T06:19:15.197Z,96.60
2019-05-12T06:21:44.846Z,96.80
2019-05-12T06:24:19.830Z,96.60
2019-05-12T06:26:56.576Z,96.60
2019-05-12T06:29:20.688Z,96.10
2019-05-12T06:31:47.753Z,95.70
2019-05-12T06:34:20.770Z,95.50
2019-05-12T06:36:48.533Z,94.80
2019-05-12T06:39:20.602Z,94.90
2019-05-12T06:41:49.348Z,94.90
2019-05-12T06:44:19.526Z,95.10
2019-05-12T06:46:53.553Z,95.30
2019-05-12T06:49:20.671Z,95.40
2019-05-12T06:51:53.699Z,95.40
2019-05-12T06:54:21.659Z,95.20
2019-05-12T06:56:57.830Z,95.40
2019-05-12T06:59:23.771Z,94.80
2019-05-12T07:01:56.115Z,95.20
2019-05-12T07:04:24.768Z,95.00
2019-05-12T07:06:56.216Z,95.20
2019-05-12T07:09:28.402Z,95.20
2019-05-12T07:12:02.647Z,95.30
2019-05-12T07:14:28.118Z,94.70
2019-05-12T07:17:02.872Z,95.30
2019-05-12T07:19:33.764Z,94.90
2019-05-12T07:22:03.620Z,94.90
2019-05-12T07:24:34.216Z,95.10
2019-05-12T07:27:09.011Z,95.20
2019-05-12T07:29:35.114Z,95.10
2019-05-12T07:32:07.250Z,95.10
2019-05-12T07:34:35.817Z,94.80
2019-05-12T07:37:05.887Z,94.70
2019-05-12T07:39:45.382Z,94.80
2019-05-12T07:42:08.901Z,94.60
2019-05-12T07:44:41.405Z,94.60
2019-05-12T07:47:13.665Z,94.40
2019-05-12T07:49:44.078Z,94.60
2019-05-12T07:52:13.976Z,94.50
2019-05-12T07:54:44.481Z,94.30
2019-05-12T07:57:17.398Z,94.50
2019-05-12T07:59:45.424Z,94.50
2019-05-12T08:02:14.981Z,94.20
2019-05-12T08:04:44.646Z,93.80
2019-05-12T08:07:14.599Z,93.80
2019-05-12T08:09:44.312Z,94.00
2019-05-12T08:12:19.132Z,94.60
2019-05-12T08:14:44.952Z,94.10
2019-05-12T08:17:19.252Z,94.00
2019-05-12T08:19:45.829Z,93.50
2019-05-12T08:22:18.862Z,94.00
2019-05-12T08:24:48.233Z,93.70
2019-05-12T08:27:17.856Z,93.10
2019-05-12T08:29:52.507Z,92.40
2019-05-12T08:32:20.311Z,91.90
2019-05-12T08:34:53.974Z,92.70
2019-05-12T08:37:24.402Z,92.50
2019-05-12T08:40:03.421Z,92.50
2019-05-12T08:42:25.014Z,92.50
2019-05-12T08:44:54.913Z,91.90
2019-05-12T08:47:29.117Z,91.80
2019-05-12T08:49:58.571Z,91.80
2019-05-12T08:52:30.775Z,92.00
2019-05-12T08:55:00.973Z,91.50
2019-05-12T08:57:32.567Z,90.40
2019-05-12T09:00:06.743Z,91.00
2019-05-12T09:02:34.682Z,91.90
2019-05-12T09:05:05.740Z,92.20
2019-05-12T09:07:39.716Z,92.80
2019-05-12T09:10:08.378Z,91.80
2019-05-12T09:12:37.949Z,91.80
2019-05-12T09:15:08.536Z,92.30
2019-05-12T09:17:49.065Z,92.30
2019-05-12T09:20:09.482Z,92.10
2019-05-12T09:22:39.032Z,91.80
2019-05-12T09:25:08.747Z,91.60
2019-05-12T09:27:39.447Z,90.80
2019-05-12T09:30:10.071Z,91.60
2019-05-12T09:32:48.580Z,92.50
2019-05-12T09:35:14.409Z,92.70
2019-05-12T09:37:44.147Z,91.80
2019-05-12T09:40:14.948Z,92.20
2019-05-12T09:42:45.742Z,91.70
2019-05-12T09:45:15.483Z,91.40
2019-05-12T09:47:45.264Z,91.30
2019-05-12T09:50:19.950Z,91.30
2019-05-12T09:52:50.043Z,91.80
2019-05-12T09:55:21.741Z,91.30
2019-05-12T09:57:49.770Z,91.60
2019-05-12T10:00:19.551Z,91.80
2019-05-12T10:02:51.130Z,92.30
2019-05-12T10:05:20.369Z,92.20
2019-05-12T10:07:50.071Z,92.20
2019-05-12T10:10:20.004Z,92.20
2019-05-12T10:12:50.697Z,92.40
2019-05-12T10:15:26.764Z,92.20
2019-05-12T10:17:53.887Z,92.30
2019-05-12T10:20:24.193Z,92.20
2019-05-12T10:22:54.244Z,92.70
2019-05-12T10:25:28.509Z,92.80
2019-05-12T10:27:55.302Z,93.00
2019-05-12T10:30:26.298Z,93.60
2019-05-12T10:32:56.058Z,93.30
2019-05-12T10:35:26.819Z,93.60
2019-05-12T10:38:00.159Z,93.30
2019-05-12T10:40:27.790Z,93.60
2019-05-12T10:42:57.553Z,92.70
2019-05-12T10:45:28.693Z,92.20
2019-05-12T10:47:58.249Z,91.30
2019-05-12T10:50:27.815Z,91.30
2019-05-12T10:52:57.530Z,91.10
2019-05-12T10:55:27.107Z,91.00
2019-05-12T10:58:01.348Z,90.80
2019-05-12T11:00:27.849Z,90.20
2019-05-12T11:03:01.511Z,90.10
2019-05-12T11:05:29.309Z,90.30
2019-05-12T11:08:00.353Z,90.00
2019-05-12T11:10:30.127Z,89.50
2019-05-12T11:13:05.896Z,88.90
2019-05-12T11:15:30.799Z,89.70
2019-05-12T11:18:01.929Z,89.80
2019-05-12T11:20:34.069Z,89.20
2019-05-12T11:23:03.547Z,89.40
2019-05-12T11:25:34.171Z,90.10
2019-05-12T11:28:05.390Z,88.80
2019-05-12T11:30:35.174Z,89.30
2019-05-12T11:33:04.978Z,89.40
2019-05-12T11:35:35.138Z,89.20
2019-05-12T11:38:05.774Z,88.40
2019-05-12T11:40:35.285Z,89.00
2019-05-12T11:43:06.236Z,86.00
2019-05-12T11:45:35.959Z,88.60
2019-05-12T11:48:09.932Z,87.10
2019-05-12T11:50:40.379Z,87.10
2019-05-12T11:53:09.530Z,85.80
2019-05-12T11:55:39.090Z,85.60
2019-05-12T11:58:11.690Z,87.30
2019-05-12T12:00:44.110Z,86.50
2019-05-12T12:03:17.928Z,85.90
2019-05-12T12:05:46.008Z,86.50
2019-05-12T12:08:15.686Z,86.70
2019-05-12T12:10:45.357Z,86.30
2019-05-12T12:13:19.359Z,85.80
2019-05-12T12:15:46.302Z,85.50
2019-05-12T12:18:17.413Z,83.20
2019-05-12T12:20:48.022Z,84.40
2019-05-12T12:23:17.577Z,85.80
2019-05-12T12:25:48.492Z,85.90
2019-05-12T12:28:20.004Z,85.30
2019-05-12T12:30:52.562Z,86.60
2019-05-12T12:33:20.846Z,87.90
2019-05-12T12:35:55.574Z,86.90
2019-05-12T12:38:22.744Z,84.00
2019-05-12T12:40:53.617Z,84.20
2019-05-12T12:43:24.802Z,79.50
2019-05-12T12:45:57.220Z,82.00
2019-05-12T12:48:29.701Z,80.20
2019-05-12T12:50:58.114Z,80.30
2019-05-12T12:53:28.749Z,79.50
2019-05-12T12:55:58.969Z,80.10
2019-05-12T12:58:31.260Z,69.80
2019-05-12T13:00:59.920Z,74.10
2019-05-12T13:03:30.966Z,81.10
2019-05-12T13:06:00.606Z,83.10
2019-05-12T13:08:30.102Z,83.30
2019-05-12T13:10:59.675Z,83.60
2019-05-12T13:13:30.856Z,83.20
2019-05-12T13:16:01.080Z,84.60
2019-05-12T13:18:33.913Z,85.40
2019-05-12T13:21:03.423Z,85.30
2019-05-12T13:23:40.533Z,83.30
2019-05-12T13:26:04.706Z,82.80
2019-05-12T13:28:34.357Z,77.60
2019-05-12T13:31:13.109Z,82.00
2019-05-12T13:33:36.537Z,85.30
2019-05-12T13:36:06.313Z,79.80
2019-05-12T13:38:40.273Z,81.80
2019-05-12T13:41:09.768Z,78.90
2019-05-12T13:43:40.082Z,78.10
2019-05-12T13:46:09.657Z,76.20
2019-05-12T13:48:39.218Z,73.80
2019-05-12T13:51:13.249Z,75.10
2019-05-12T13:53:40.486Z,74.20
2019-05-12T13:56:11.131Z,73.40
2019-05-12T13:58:43.702Z,72.60
2019-05-12T14:01:19.254Z,72.40
2019-05-12T14:03:46.247Z,71.00
2019-05-12T14:06:15.641Z,69.50
2019-05-12T14:08:45.193Z,68.00
2019-05-12T14:11:18.318Z,70.50
2019-05-12T14:13:46.301Z,69.10
2019-05-12T14:16:15.937Z,69.20
2019-05-12T14:18:45.523Z,69.20
2019-05-12T14:21:15.084Z,69.90
2019-05-12T14:23:46.005Z,69.90
2019-05-12T14:26:16.068Z,68.70
2019-05-12T14:28:49.634Z,69.10
2019-05-12T14:31:29.347Z,66.90
2019-05-12T14:33:49.155Z,68.60
2019-05-12T14:36:22.056Z,69.50
2019-05-12T14:38:53.566Z,65.00
2019-05-12T14:41:26.549Z,68.60
2019-05-12T14:44:01.619Z,66.70
2019-05-12T14:46:25.543Z,64.40
2019-05-12T14:48:55.263Z,65.30
2019-05-12T14:51:24.757Z,66.40
2019-05-12T14:53:54.330Z,65.60
2019-05-12T14:56:26.157Z,65.60
2019-05-12T14:59:00.505Z,69.00
2019-05-12T15:01:38.602Z,66.70
2019-05-12T15:03:58.097Z,67.40
2019-05-12T15:06:29.567Z,66.40
2019-05-12T15:08:59.897Z,66.50
2019-05-12T15:11:29.450Z,67.90
2019-05-12T15:13:59.081Z,67.40
2019-05-12T15:16:31.740Z,69.30
2019-05-12T15:19:03.407Z,70.50
2019-05-12T15:21:34.169Z,72.40
2019-05-12T15:24:09.155Z,69.90
2019-05-12T15:26:37.694Z,71.00
2019-05-12T15:29:13.401Z,70.50
2019-05-12T15:31:52.473Z,69.70
2019-05-12T15:34:09.717Z,73.20
2019-05-12T15:36:43.669Z,74.10
2019-05-12T15:39:13.785Z,76.10
2019-05-12T15:41:42.658Z,75.80
2019-05-12T15:44:14.575Z,75.30
2019-05-12T15:46:46.672Z,77.20
2019-05-12T15:49:15.652Z,72.70
2019-05-12T15:51:54.233Z,75.80
2019-05-12T15:54:16.495Z,74.60
2019-05-12T15:56:46.376Z,73.20
2019-05-12T15:59:17.384Z,74.70
2019-05-12T16:01:48.281Z,77.00
2019-05-12T16:04:17.826Z,79.10
2019-05-12T16:06:53.365Z,79.30
2019-05-12T16:09:20.161Z,78.00
2019-05-12T16:11:49.729Z,81.60
2019-05-12T16:14:19.348Z,80.10
2019-05-12T16:16:50.385Z,78.80
2019-05-12T16:19:19.841Z,79.90
2019-05-12T16:21:49.361Z,79.40
2019-05-12T16:24:18.845Z,80.80
2019-05-12T16:26:52.151Z,82.90
2019-05-12T16:29:19.610Z,82.90
2019-05-12T16:31:51.274Z,84.00
2019-05-12T16:34:20.971Z,84.40
2019-05-12T16:36:52.638Z,83.30
2019-05-12T16:39:23.944Z,83.40
2019-05-12T16:41:54.419Z,87.10
2019-05-12T16:44:26.162Z,87.70
2019-05-12T16:46:55.408Z,88.30
2019-05-12T16:49:33.135Z,88.10
2019-05-12T16:51:57.561Z,86.90
2019-05-12T16:54:27.211Z,88.70
2019-05-12T16:57:00.317Z,86.20
2019-05-12T16:59:29.429Z,82.80
2019-05-12T17:01:59.317Z,83.20
2019-05-12T17:04:30.416Z,81.60
2019-05-12T17:07:01.593Z,83.10
2019-05-12T17:09:34.117Z,75.90
2019-05-12T17:12:05.056Z,73.90
2019-05-12T17:14:38.816Z,70.90
2019-05-12T17:17:10.430Z,69.60
2019-05-12T17:19:38.497Z,70.50
2019-05-12T17:22:08.125Z,68.00
2019-05-12T17:24:37.810Z,69.30
2019-05-12T17:27:09.254Z,68.10
2019-05-12T17:29:40.717Z,69.50
2019-05-12T17:32:13.255Z,68.70
2019-05-12T17:34:45.613Z,67.40
2019-05-12T17:37:14.555Z,68.80
2019-05-12T17:39:44.250Z,70.30
2019-05-12T17:42:21.722Z,70.40
2019-05-12T17:44:44.928Z,71.30
2019-05-12T17:47:21.423Z,73.10
2019-05-12T17:49:46.419Z,74.40
2019-05-12T17:52:18.594Z,77.10
2019-05-12T17:54:48.505Z,75.80
2019-05-12T17:57:20.045Z,74.90
2019-05-12T17:59:49.776Z,76.20
2019-05-12T18:02:19.465Z,76.70
2019-05-12T18:04:50.015Z,76.80
2019-05-12T18:07:19.770Z,77.20
2019-05-12T18:09:50.504Z,76.30
2019-05-12T18:12:20.512Z,78.00
2019-05-12T18:14:52.151Z,79.10
2019-05-12T18:17:23.476Z,79.30
2019-05-12T18:19:59.006Z,78.30
2019-05-12T18:22:23.761Z,78.10
2019-05-12T18:24:54.330Z,76.80
2019-05-12T18:27:24.017Z,77.70
2019-05-12T18:29:53.703Z,77.50
2019-05-12T18:32:24.407Z,76.80
2019-05-12T18:34:55.206Z,75.00
2019-05-12T18:37:24.894Z,74.00
2019-05-12T18:39:57.050Z,74.20
2019-05-12T18:42:26.782Z,76.20
2019-05-12T18:44:56.389Z,77.10
2019-05-12T18:47:31.925Z,79.20
2019-05-12T18:49:57.247Z,79.20
2019-05-12T18:52:29.377Z,79.60
2019-05-12T18:54:58.425Z,79.70
2019-05-12T18:57:28.526Z,79.50
2019-05-12T19:00:03.681Z,81.10
2019-05-12T19:02:29.791Z,81.50
2019-05-12T19:04:59.357Z,83.30
2019-05-12T19:07:39.723Z,82.30
2019-05-12T19:10:07.352Z,83.50
2019-05-12T19:12:37.026Z,83.80
2019-05-12T19:15:10.320Z,82.30
2019-05-12T19:17:41.161Z,83.40
2019-05-12T19:20:13.444Z,85.40
2019-05-12T19:22:48.338Z,85.80
2019-05-12T19:25:18.693Z,86.60
2019-05-12T19:27:49.963Z,87.60
2019-05-12T19:30:25.025Z,88.20
2019-05-12T19:32:52.479Z,89.00
2019-05-12T19:35:38.088Z,88.60
2019-05-12T19:38:13.414Z,89.50
2019-05-12T19:40:48.988Z,89.30
2019-05-12T19:43:15.942Z,90.10
2019-05-12T19:45:45.589Z,89.10
2019-05-12T19:48:24.807Z,90.20
2019-05-12T19:50:52.886Z,90.10
2019-05-12T19:53:20.349Z,90.50
2019-05-12T19:55:51.597Z,90.60
2019-05-12T19:58:23.559Z,90.80
2019-05-12T20:00:54.310Z,91.00
2019-05-12T20:03:25.028Z,91.20
2019-05-12T20:05:55.966Z,91.50
2019-05-12T20:08:26.497Z,91.60
2019-05-12T20:10:56.105Z,92.00
2019-05-12T20:13:29.679Z,92.60
2019-05-12T20:16:02.179Z,92.50
2019-05-12T20:18:34.307Z,92.40
2019-05-12T20:21:04.456Z,92.60
2019-05-12T20:23:34.282Z,92.60
2019-05-12T20:26:04.054Z,92.90
2019-05-12T20:28:34.599Z,93.20
2019-05-12T20:31:06.158Z,93.60
2019-05-12T20:33:35.887Z,93.30
2019-05-12T20:36:05.700Z,93.70
2019-05-12T20:38:40.516Z,93.50
2019-05-12T20:41:10.861Z,93.60
2019-05-12T20:43:43.607Z,93.20
2019-05-12T20:46:12.967Z,93.10
2019-05-12T20:48:44.488Z,92.80
2019-05-12T20:51:19.984Z,93.00
2019-05-12T20:53:47.714Z,92.60
2019-05-12T20:56:21.661Z,92.50
2019-05-12T20:58:48.657Z,92.70
2019-05-12T21:01:20.337Z,92.30
2019-05-12T21:03:51.048Z,92.30
2019-05-12T21:06:20.757Z,92.20
2019-05-12T21:08:53.785Z,91.70
2019-05-12T21:11:24.319Z,91.70
2019-05-12T21:13:54.605Z,91.30
2019-05-12T21:16:31.240Z,90.50
2019-05-12T21:19:04.323Z,90.50
2019-05-12T21:21:33.196Z,90.20
2019-05-12T21:23:59.443Z,90.00
2019-05-12T21:26:34.709Z,90.00
2019-05-12T21:29:00.644Z,88.50
2019-05-12T21:31:31.104Z,87.30
2019-05-12T21:34:03.820Z,88.50
2019-05-12T21:36:33.857Z,88.10
2019-05-12T21:39:10.404Z,88.10
2019-05-12T21:41:40.609Z,88.20
2019-05-12T21:44:11.349Z,88.50
2019-05-12T21:46:46.961Z,88.20
2019-05-12T21:49:12.915Z,88.90
2019-05-12T21:51:44.591Z,89.60
2019-05-12T21:54:14.444Z,89.60
2019-05-12T21:56:49.138Z,90.00
2019-05-12T21:59:15.753Z,89.60
2019-05-12T22:01:46.036Z,90.50
2019-05-12T22:04:16.043Z,90.50
2019-05-12T22:06:45.754Z,91.10
2019-05-12T22:09:17.548Z,90.70
2019-05-12T22:11:51.437Z,91.30
2019-05-12T22:14:17.959Z,91.10
2019-05-12T22:16:50.228Z,90.60
2019-05-12T22:19:19.836Z,88.90
2019-05-12T22:21:49.687Z,90.40
2019-05-12T22:24:24.516Z,90.60
2019-05-12T22:26:50.708Z,90.80
2019-05-12T22:29:21.246Z,90.60
2019-05-12T22:31:51.560Z,91.00
2019-05-12T22:34:21.291Z,91.00
2019-05-12T22:36:57.859Z,90.10
2019-05-12T22:39:23.866Z,90.20
2019-05-12T22:41:53.475Z,91.40
2019-05-12T22:44:25.088Z,91.90
2019-05-12T22:46:54.327Z,91.80
2019-05-12T22:49:24.040Z,92.10
2019-05-12T22:52:02.490Z,92.10
2019-05-12T22:54:24.891Z,92.30
2019-05-12T22:56:55.184Z,92.60
2019-05-12T22:59:25.751Z,92.60
2019-05-12T23:01:55.354Z,92.70
2019-05-12T23:04:34.155Z,93.10
2019-05-12T23:06:56.210Z,93.30
2019-05-12T23:09:29.903Z,92.10
2019-05-12T23:11:57.061Z,91.50
2019-05-12T23:14:26.672Z,91.60
2019-05-12T23:16:59.992Z,91.90
2019-05-12T23:19:27.524Z,92.30
2019-05-12T23:21:58.767Z,92.20
2019-05-12T23:24:30.438Z,91.80
2019-05-12T23:27:00.551Z,91.90
2019-05-12T23:29:31.164Z,91.50
2019-05-12T23:32:07.279Z,90.90
2019-05-12T23:34:33.825Z,91.20
2019-05-12T23:37:04.816Z,91.30
2019-05-12T23:39:38.280Z,91.10
2019-05-12T23:42:05.773Z,91.50
2019-05-12T23:44:35.385Z,91.30
2019-05-12T23:47:05.090Z,91.40
2019-05-12T23:49:34.698Z,91.30
2019-05-12T23:52:04.440Z,90.70
2019-05-12T23:54:35.039Z,91.20
2019-05-12T23:57:04.649Z,90.90
2019-05-12T23:59:34.256Z,91.10
